sensor_id;sensor_type;location;lat;lon;timestamp;P1;P2;P0
44871;PMS7003;30602;51.060;17.226;2023-10-31T00:00:31;6;6;4
44871;PMS7003;30602;51.060;17.226;2023-10-31T00:03:56;7;5;4
44871;PMS7003;30602;51.060;17.226;2023-10-31T00:08:12;5;4;4
44871;PMS7003;30602;51.060;17.226;2023-10-31T00:12:34;6;5;4
44871;PMS7003;30602;51.060;17.226;2023-10-31T00:15:56;5;5;3
44871;PMS7003;30602;51.060;17.226;2023-10-31T00:19:51;6;4;3
44871;PMS7003;30602;51.060;17.226;2023-10-31T00:23:16;6;3;2
44871;PMS7003;30602;51.060;17.226;2023-10-31T00:26:42;4;3;3
44871;PMS7003;30602;51.060;17.226;2023-10-31T00:30:06;5;4;3
44871;PMS7003;30602;51.060;17.226;2023-10-31T00:34:01;4;3;3
44871;PMS7003;30602;51.060;17.226;2023-10-31T00:37:49;3;3;3
44871;PMS7003;30602;51.060;17.226;2023-10-31T00:41:16;5;5;3
44871;PMS7003;30602;51.060;17.226;2023-10-31T00:44:59;5;4;3
44871;PMS7003;30602;51.060;17.226;2023-10-31T00:48:43;2;2;2
44871;PMS7003;30602;51.060;17.226;2023-10-31T00:52:06;5;5;3
44871;PMS7003;30602;51.060;17.226;2023-10-31T00:55:59;3;3;2
44871;PMS7003;30602;51.060;17.226;2023-10-31T00:59:23;3;3;2
44871;PMS7003;30602;51.060;17.226;2023-10-31T01:02:51;2;2;2
44871;PMS7003;30602;51.060;17.226;2023-10-31T01:06:17;3;3;3
44871;PMS7003;30602;51.060;17.226;2023-10-31T01:09:41;2;2;2
44871;PMS7003;30602;51.060;17.226;2023-10-31T01:13:05;4;3;3
44871;PMS7003;30602;51.060;17.226;2023-10-31T01:16:59;5;4;2
44871;PMS7003;30602;51.060;17.226;2023-10-31T01:20:23;3;3;2
44871;PMS7003;30602;51.060;17.226;2023-10-31T01:23:50;4;3;3
44871;PMS7003;30602;51.060;17.226;2023-10-31T01:28:31;3;3;2
44871;PMS7003;30602;51.060;17.226;2023-10-31T01:32:34;4;2;2
44871;PMS7003;30602;51.060;17.226;2023-10-31T01:35:54;5;1;1
44871;PMS7003;30602;51.060;17.226;2023-10-31T01:39:19;2;1;1
44871;PMS7003;30602;51.060;17.226;2023-10-31T01:43:02;2;2;1
44871;PMS7003;30602;51.060;17.226;2023-10-31T01:46:27;4;3;2
44871;PMS7003;30602;51.060;17.226;2023-10-31T01:49:52;3;3;2
44871;PMS7003;30602;51.060;17.226;2023-10-31T01:53:16;2;2;1
44871;PMS7003;30602;51.060;17.226;2023-10-31T01:57:00;4;2;2
44871;PMS7003;30602;51.060;17.226;2023-10-31T02:00:48;3;2;2
44871;PMS7003;30602;51.060;17.226;2023-10-31T02:04:33;3;3;2
44871;PMS7003;30602;51.060;17.226;2023-10-31T02:07:58;4;3;2
44871;PMS7003;30602;51.060;17.226;2023-10-31T02:11:24;2;2;2
44871;PMS7003;30602;51.060;17.226;2023-10-31T02:14:46;2;2;1
44871;PMS7003;30602;51.060;17.226;2023-10-31T02:18:27;3;2;1
44871;PMS7003;30602;51.060;17.226;2023-10-31T02:21:54;5;5;4
44871;PMS7003;30602;51.060;17.226;2023-10-31T02:25:19;5;3;3
44871;PMS7003;30602;51.060;17.226;2023-10-31T02:29:07;4;4;4
44871;PMS7003;30602;51.060;17.226;2023-10-31T02:32:51;6;3;3
44871;PMS7003;30602;51.060;17.226;2023-10-31T02:36:37;4;3;2
44871;PMS7003;30602;51.060;17.226;2023-10-31T02:39:58;4;3;2
44871;PMS7003;30602;51.060;17.226;2023-10-31T02:43:26;4;2;2
44871;PMS7003;30602;51.060;17.226;2023-10-31T02:47:11;4;3;2
44871;PMS7003;30602;51.060;17.226;2023-10-31T02:50:55;2;2;2
44871;PMS7003;30602;51.060;17.226;2023-10-31T02:54:32;3;2;2
44871;PMS7003;30602;51.060;17.226;2023-10-31T02:57:58;3;2;2
44871;PMS7003;30602;51.060;17.226;2023-10-31T03:01:59;5;3;2
44871;PMS7003;30602;51.060;17.226;2023-10-31T03:05:21;2;2;1
44871;PMS7003;30602;51.060;17.226;2023-10-31T03:09:27;5;3;2
44871;PMS7003;30602;51.060;17.226;2023-10-31T03:13:02;4;3;3
44871;PMS7003;30602;51.060;17.226;2023-10-31T03:16:42;3;3;2
44871;PMS7003;30602;51.060;17.226;2023-10-31T03:20:07;4;2;2
44871;PMS7003;30602;51.060;17.226;2023-10-31T03:24:02;3;3;3
44871;PMS7003;30602;51.060;17.226;2023-10-31T03:27:26;3;3;2
44871;PMS7003;30602;51.060;17.226;2023-10-31T03:30:50;2;2;2
44871;PMS7003;30602;51.060;17.226;2023-10-31T03:34:25;2;2;2
44871;PMS7003;30602;51.060;17.226;2023-10-31T03:37:49;2;2;1
44871;PMS7003;30602;51.060;17.226;2023-10-31T03:41:36;3;1;1
44871;PMS7003;30602;51.060;17.226;2023-10-31T03:45:20;1;1;1
44871;PMS7003;30602;51.060;17.226;2023-10-31T03:49:19;2;2;1
44871;PMS7003;30602;51.060;17.226;2023-10-31T03:53:01;1;1;1
44871;PMS7003;30602;51.060;17.226;2023-10-31T03:56:45;3;3;2
44871;PMS7003;30602;51.060;17.226;2023-10-31T04:00:34;4;2;2
44871;PMS7003;30602;51.060;17.226;2023-10-31T04:04:01;6;3;2
44871;PMS7003;30602;51.060;17.226;2023-10-31T04:07:57;4;3;2
44871;PMS7003;30602;51.060;17.226;2023-10-31T04:11:33;3;2;2
44871;PMS7003;30602;51.060;17.226;2023-10-31T04:14:57;2;1;1
44871;PMS7003;30602;51.060;17.226;2023-10-31T04:18:51;2;1;1
44871;PMS7003;30602;51.060;17.226;2023-10-31T04:22:31;2;1;1
44871;PMS7003;30602;51.060;17.226;2023-10-31T04:26:25;3;2;1
44871;PMS7003;30602;51.060;17.226;2023-10-31T04:30:02;4;3;2
44871;PMS7003;30602;51.060;17.226;2023-10-31T04:33:45;4;2;2
44871;PMS7003;30602;51.060;17.226;2023-10-31T04:37:20;4;2;1
44871;PMS7003;30602;51.060;17.226;2023-10-31T04:41:13;3;3;2
44871;PMS7003;30602;51.060;17.226;2023-10-31T04:44:49;3;3;2
44871;PMS7003;30602;51.060;17.226;2023-10-31T04:48:23;2;2;2
44871;PMS7003;30602;51.060;17.226;2023-10-31T04:52:19;6;4;4
44871;PMS7003;30602;51.060;17.226;2023-10-31T04:56:11;3;3;3
44871;PMS7003;30602;51.060;17.226;2023-10-31T05:00:21;3;3;2
44871;PMS7003;30602;51.060;17.226;2023-10-31T05:03:43;3;3;3
44871;PMS7003;30602;51.060;17.226;2023-10-31T05:07:28;5;2;2
44871;PMS7003;30602;51.060;17.226;2023-10-31T05:10:51;3;2;2
44871;PMS7003;30602;51.060;17.226;2023-10-31T05:14:25;4;3;2
44871;PMS7003;30602;51.060;17.226;2023-10-31T05:17:51;4;3;3
44871;PMS7003;30602;51.060;17.226;2023-10-31T05:21:19;4;2;2
44871;PMS7003;30602;51.060;17.226;2023-10-31T05:25:06;3;3;2
44871;PMS7003;30602;51.060;17.226;2023-10-31T05:29:05;3;3;2
44871;PMS7003;30602;51.060;17.226;2023-10-31T05:32:50;3;2;2
44871;PMS7003;30602;51.060;17.226;2023-10-31T05:36:32;3;2;1
44871;PMS7003;30602;51.060;17.226;2023-10-31T05:39:54;1;1;0
44871;PMS7003;30602;51.060;17.226;2023-10-31T05:43:31;1;1;1
44871;PMS7003;30602;51.060;17.226;2023-10-31T05:47:16;2;2;1
44871;PMS7003;30602;51.060;17.226;2023-10-31T05:51:04;2;2;1
44871;PMS7003;30602;51.060;17.226;2023-10-31T05:55:02;2;2;2
44871;PMS7003;30602;51.060;17.226;2023-10-31T05:58:56;2;2;1
44871;PMS7003;30602;51.060;17.226;2023-10-31T06:02:52;4;3;2
44871;PMS7003;30602;51.060;17.226;2023-10-31T06:06:20;2;2;1
44871;PMS7003;30602;51.060;17.226;2023-10-31T06:09:53;3;2;2
44871;PMS7003;30602;51.060;17.226;2023-10-31T06:13:37;2;2;2
44871;PMS7003;30602;51.060;17.226;2023-10-31T06:17:22;5;3;3
44871;PMS7003;30602;51.060;17.226;2023-10-31T06:20:52;5;3;2
44871;PMS7003;30602;51.060;17.226;2023-10-31T06:24:27;7;6;4
44871;PMS7003;30602;51.060;17.226;2023-10-31T06:32:03;5;5;4
44871;PMS7003;30602;51.060;17.226;2023-10-31T06:36:06;7;6;6
44871;PMS7003;30602;51.060;17.226;2023-10-31T06:40:05;4;4;4
44871;PMS7003;30602;51.060;17.226;2023-10-31T06:43:48;4;4;3
44871;PMS7003;30602;51.060;17.226;2023-10-31T06:47:11;4;4;4
44871;PMS7003;30602;51.060;17.226;2023-10-31T06:50:35;4;3;2
44871;PMS7003;30602;51.060;17.226;2023-10-31T06:54:21;4;4;3
44871;PMS7003;30602;51.060;17.226;2023-10-31T06:57:48;5;4;4
44871;PMS7003;30602;51.060;17.226;2023-10-31T07:01:14;6;5;4
44871;PMS7003;30602;51.060;17.226;2023-10-31T07:05:32;7;5;4
44871;PMS7003;30602;51.060;17.226;2023-10-31T07:09:28;5;5;4
44871;PMS7003;30602;51.060;17.226;2023-10-31T07:12:54;4;3;2
44871;PMS7003;30602;51.060;17.226;2023-10-31T07:16:31;5;4;3
44871;PMS7003;30602;51.060;17.226;2023-10-31T07:20:13;4;4;3
44871;PMS7003;30602;51.060;17.226;2023-10-31T07:23:35;3;3;3
44871;PMS7003;30602;51.060;17.226;2023-10-31T07:27:18;4;4;4
44871;PMS7003;30602;51.060;17.226;2023-10-31T07:30:40;4;3;3
44871;PMS7003;30602;51.060;17.226;2023-10-31T07:34:59;4;4;3
44871;PMS7003;30602;51.060;17.226;2023-10-31T07:38:28;5;5;3
44871;PMS7003;30602;51.060;17.226;2023-10-31T07:42:12;4;4;4
44871;PMS7003;30602;51.060;17.226;2023-10-31T07:45:40;5;5;5
44871;PMS7003;30602;51.060;17.226;2023-10-31T07:49:00;4;4;4
44871;PMS7003;30602;51.060;17.226;2023-10-31T07:52:26;3;3;3
44871;PMS7003;30602;51.060;17.226;2023-10-31T07:59:59;2;2;1
44871;PMS7003;30602;51.060;17.226;2023-10-31T08:03:23;5;5;4
44871;PMS7003;30602;51.060;17.226;2023-10-31T08:06:45;2;1;1
44871;PMS7003;30602;51.060;17.226;2023-10-31T08:10:41;3;1;1
44871;PMS7003;30602;51.060;17.226;2023-10-31T08:14:05;0;0;0
44871;PMS7003;30602;51.060;17.226;2023-10-31T08:17:25;0;0;0
44871;PMS7003;30602;51.060;17.226;2023-10-31T08:20:47;0;0;0
44871;PMS7003;30602;51.060;17.226;2023-10-31T08:28:28;0;0;0
44871;PMS7003;30602;51.060;17.226;2023-10-31T08:31:53;3;1;1
44871;PMS7003;30602;51.060;17.226;2023-10-31T08:35:14;1;0;0
44871;PMS7003;30602;51.060;17.226;2023-10-31T08:38:40;2;1;1
44871;PMS7003;30602;51.060;17.226;2023-10-31T08:42:02;1;1;0
44871;PMS7003;30602;51.060;17.226;2023-10-31T08:45:40;2;0;0
44871;PMS7003;30602;51.060;17.226;2023-10-31T08:49:35;1;1;0
44871;PMS7003;30602;51.060;17.226;2023-10-31T08:52:56;1;1;1
44871;PMS7003;30602;51.060;17.226;2023-10-31T08:56:46;1;1;1
44871;PMS7003;30602;51.060;17.226;2023-10-31T09:00:12;1;1;1
44871;PMS7003;30602;51.060;17.226;2023-10-31T09:03:55;2;1;1
44871;PMS7003;30602;51.060;17.226;2023-10-31T09:08:05;1;1;1
44871;PMS7003;30602;51.060;17.226;2023-10-31T09:11:38;3;2;2
44871;PMS7003;30602;51.060;17.226;2023-10-31T09:23:18;1;1;1
44871;PMS7003;30602;51.060;17.226;2023-10-31T09:27:03;1;1;1
44871;PMS7003;30602;51.060;17.226;2023-10-31T09:30:24;2;2;1
44871;PMS7003;30602;51.060;17.226;2023-10-31T09:33:51;2;1;0
44871;PMS7003;30602;51.060;17.226;2023-10-31T09:37:12;1;1;1
44871;PMS7003;30602;51.060;17.226;2023-10-31T09:41:23;2;2;2
44871;PMS7003;30602;51.060;17.226;2023-10-31T09:45:08;2;1;0
44871;PMS7003;30602;51.060;17.226;2023-10-31T09:48:31;1;1;1
44871;PMS7003;30602;51.060;17.226;2023-10-31T09:52:12;1;1;1
44871;PMS7003;30602;51.060;17.226;2023-10-31T09:56:00;1;1;0
44871;PMS7003;30602;51.060;17.226;2023-10-31T09:59:26;1;1;1
44871;PMS7003;30602;51.060;17.226;2023-10-31T10:03:23;1;1;1
44871;PMS7003;30602;51.060;17.226;2023-10-31T10:07:29;1;1;1
44871;PMS7003;30602;51.060;17.226;2023-10-31T10:10:53;2;1;1
44871;PMS7003;30602;51.060;17.226;2023-10-31T10:14:40;0;0;0
44871;PMS7003;30602;51.060;17.226;2023-10-31T10:18:06;0;0;0
44871;PMS7003;30602;51.060;17.226;2023-10-31T10:21:54;3;0;0
44871;PMS7003;30602;51.060;17.226;2023-10-31T10:25:37;1;0;0
44871;PMS7003;30602;51.060;17.226;2023-10-31T10:29:13;1;1;1
44871;PMS7003;30602;51.060;17.226;2023-10-31T10:33:29;0;0;0
44871;PMS7003;30602;51.060;17.226;2023-10-31T10:41:43;0;0;0
44871;PMS7003;30602;51.060;17.226;2023-10-31T10:45:28;0;0;0
44871;PMS7003;30602;51.060;17.226;2023-10-31T10:48:50;1;1;1
44871;PMS7003;30602;51.060;17.226;2023-10-31T10:52:35;5;4;3
44871;PMS7003;30602;51.060;17.226;2023-10-31T10:56:09;0;0;0
44871;PMS7003;30602;51.060;17.226;2023-10-31T11:00:04;1;1;1
44871;PMS7003;30602;51.060;17.226;2023-10-31T11:03:33;0;0;0
44871;PMS7003;30602;51.060;17.226;2023-10-31T11:07:15;1;0;0
44871;PMS7003;30602;51.060;17.226;2023-10-31T11:10:58;0;0;0
44871;PMS7003;30602;51.060;17.226;2023-10-31T11:14:53;0;0;0
44871;PMS7003;30602;51.060;17.226;2023-10-31T11:18:50;5;3;2
44871;PMS7003;30602;51.060;17.226;2023-10-31T11:22:41;1;1;1
44871;PMS7003;30602;51.060;17.226;2023-10-31T11:26:40;1;1;0
44871;PMS7003;30602;51.060;17.226;2023-10-31T11:31:08;0;0;0
44871;PMS7003;30602;51.060;17.226;2023-10-31T11:35:16;0;0;0
44871;PMS7003;30602;51.060;17.226;2023-10-31T11:42:50;0;0;0
44871;PMS7003;30602;51.060;17.226;2023-10-31T11:46:19;1;1;0
44871;PMS7003;30602;51.060;17.226;2023-10-31T11:50:09;1;0;0
44871;PMS7003;30602;51.060;17.226;2023-10-31T11:53:34;0;0;0
44871;PMS7003;30602;51.060;17.226;2023-10-31T12:09:06;1;1;1
44871;PMS7003;30602;51.060;17.226;2023-10-31T12:12:32;0;0;0
44871;PMS7003;30602;51.060;17.226;2023-10-31T12:17:03;0;0;0
44871;PMS7003;30602;51.060;17.226;2023-10-31T12:20:49;3;1;1
44871;PMS7003;30602;51.060;17.226;2023-10-31T12:24:16;4;1;1
44871;PMS7003;30602;51.060;17.226;2023-10-31T12:35:35;3;3;2
44871;PMS7003;30602;51.060;17.226;2023-10-31T12:38:59;1;0;0
44871;PMS7003;30602;51.060;17.226;2023-10-31T12:42:45;1;0;0
44871;PMS7003;30602;51.060;17.226;2023-10-31T12:49:44;2;2;2
44871;PMS7003;30602;51.060;17.226;2023-10-31T12:53:26;1;1;1
44871;PMS7003;30602;51.060;17.226;2023-10-31T12:56:51;1;1;1
44871;PMS7003;30602;51.060;17.226;2023-10-31T13:00:16;2;2;1
44871;PMS7003;30602;51.060;17.226;2023-10-31T13:04:06;1;1;1
44871;PMS7003;30602;51.060;17.226;2023-10-31T13:08:14;0;0;0
44871;PMS7003;30602;51.060;17.226;2023-10-31T13:11:36;0;0;0
44871;PMS7003;30602;51.060;17.226;2023-10-31T13:15:06;0;0;0
44871;PMS7003;30602;51.060;17.226;2023-10-31T13:18:43;0;0;0
44871;PMS7003;30602;51.060;17.226;2023-10-31T13:22:22;0;0;0
44871;PMS7003;30602;51.060;17.226;2023-10-31T13:25:49;0;0;0
44871;PMS7003;30602;51.060;17.226;2023-10-31T13:29:55;0;0;0
44871;PMS7003;30602;51.060;17.226;2023-10-31T13:34:21;0;0;0
44871;PMS7003;30602;51.060;17.226;2023-10-31T13:38:19;0;0;0
44871;PMS7003;30602;51.060;17.226;2023-10-31T13:41:56;0;0;0
44871;PMS7003;30602;51.060;17.226;2023-10-31T13:45:37;0;0;0
44871;PMS7003;30602;51.060;17.226;2023-10-31T13:49:01;0;0;0
44871;PMS7003;30602;51.060;17.226;2023-10-31T13:52:41;0;0;0
44871;PMS7003;30602;51.060;17.226;2023-10-31T13:56:26;0;0;0
44871;PMS7003;30602;51.060;17.226;2023-10-31T14:00:36;0;0;0
44871;PMS7003;30602;51.060;17.226;2023-10-31T14:04:29;0;0;0
44871;PMS7003;30602;51.060;17.226;2023-10-31T14:07:54;0;0;0
44871;PMS7003;30602;51.060;17.226;2023-10-31T14:11:19;0;0;0
44871;PMS7003;30602;51.060;17.226;2023-10-31T14:15:28;0;0;0
44871;PMS7003;30602;51.060;17.226;2023-10-31T14:18:56;1;1;1
44871;PMS7003;30602;51.060;17.226;2023-10-31T14:22:17;1;0;0
44871;PMS7003;30602;51.060;17.226;2023-10-31T14:25:43;0;0;0
44871;PMS7003;30602;51.060;17.226;2023-10-31T14:29:10;2;0;0
44871;PMS7003;30602;51.060;17.226;2023-10-31T14:32:35;0;0;0
44871;PMS7003;30602;51.060;17.226;2023-10-31T14:35:56;0;0;0
44871;PMS7003;30602;51.060;17.226;2023-10-31T14:40:00;0;0;0
44871;PMS7003;30602;51.060;17.226;2023-10-31T14:43:54;2;1;1
44871;PMS7003;30602;51.060;17.226;2023-10-31T14:47:30;2;2;2
44871;PMS7003;30602;51.060;17.226;2023-10-31T14:51:23;1;1;1
44871;PMS7003;30602;51.060;17.226;2023-10-31T14:55:29;2;2;2
44871;PMS7003;30602;51.060;17.226;2023-10-31T14:59:22;2;1;0
44871;PMS7003;30602;51.060;17.226;2023-10-31T15:07:13;1;1;1
44871;PMS7003;30602;51.060;17.226;2023-10-31T15:11:32;2;2;1
44871;PMS7003;30602;51.060;17.226;2023-10-31T15:15:10;1;1;1
44871;PMS7003;30602;51.060;17.226;2023-10-31T15:19:08;1;1;1
44871;PMS7003;30602;51.060;17.226;2023-10-31T15:23:23;1;1;1
44871;PMS7003;30602;51.060;17.226;2023-10-31T15:26:47;0;0;0
44871;PMS7003;30602;51.060;17.226;2023-10-31T15:30:25;1;1;1
44871;PMS7003;30602;51.060;17.226;2023-10-31T15:38:50;1;1;1
44871;PMS7003;30602;51.060;17.226;2023-10-31T15:43:10;4;1;1
44871;PMS7003;30602;51.060;17.226;2023-10-31T15:46:54;6;4;3
44871;PMS7003;30602;51.060;17.226;2023-10-31T15:50:42;11;10;9
44871;PMS7003;30602;51.060;17.226;2023-10-31T15:54:27;6;6;5
44871;PMS7003;30602;51.060;17.226;2023-10-31T15:58:16;7;5;4
44871;PMS7003;30602;51.060;17.226;2023-10-31T16:02:25;3;3;2
44871;PMS7003;30602;51.060;17.226;2023-10-31T16:06:10;2;2;2
44871;PMS7003;30602;51.060;17.226;2023-10-31T16:09:32;4;2;1
44871;PMS7003;30602;51.060;17.226;2023-10-31T16:13:29;47;38;22
44871;PMS7003;30602;51.060;17.226;2023-10-31T16:17:29;9;8;6
44871;PMS7003;30602;51.060;17.226;2023-10-31T16:21:14;17;14;12
44871;PMS7003;30602;51.060;17.226;2023-10-31T16:24:49;8;6;5
44871;PMS7003;30602;51.060;17.226;2023-10-31T16:28:20;8;7;5
44871;PMS7003;30602;51.060;17.226;2023-10-31T16:31:46;4;4;4
44871;PMS7003;30602;51.060;17.226;2023-10-31T16:35:32;4;4;3
44871;PMS7003;30602;51.060;17.226;2023-10-31T16:38:59;4;3;2
44871;PMS7003;30602;51.060;17.226;2023-10-31T16:42:22;17;15;10
44871;PMS7003;30602;51.060;17.226;2023-10-31T16:46:12;13;13;10
44871;PMS7003;30602;51.060;17.226;2023-10-31T16:49:55;16;13;9
44871;PMS7003;30602;51.060;17.226;2023-10-31T16:53:25;18;14;10
44871;PMS7003;30602;51.060;17.226;2023-10-31T16:56:49;27;21;13
44871;PMS7003;30602;51.060;17.226;2023-10-31T17:00:19;20;18;10
44871;PMS7003;30602;51.060;17.226;2023-10-31T17:03:59;29;25;15
44871;PMS7003;30602;51.060;17.226;2023-10-31T17:07:24;26;24;16
44871;PMS7003;30602;51.060;17.226;2023-10-31T17:11:03;29;28;16
44871;PMS7003;30602;51.060;17.226;2023-10-31T17:14:47;25;23;14
44871;PMS7003;30602;51.060;17.226;2023-10-31T17:18:49;23;21;13
44871;PMS7003;30602;51.060;17.226;2023-10-31T17:22:43;11;9;6
44871;PMS7003;30602;51.060;17.226;2023-10-31T17:26:34;35;27;14
44871;PMS7003;30602;51.060;17.226;2023-10-31T17:30:00;10;8;7
44871;PMS7003;30602;51.060;17.226;2023-10-31T17:34:00;12;11;9
44871;PMS7003;30602;51.060;17.226;2023-10-31T17:37:21;11;9;7
44871;PMS7003;30602;51.060;17.226;2023-10-31T17:40:56;17;15;11
44871;PMS7003;30602;51.060;17.226;2023-10-31T17:44:55;13;12;9
44871;PMS7003;30602;51.060;17.226;2023-10-31T17:48:40;15;14;10
44871;PMS7003;30602;51.060;17.226;2023-10-31T17:52:09;24;22;16
44871;PMS7003;30602;51.060;17.226;2023-10-31T17:55:55;15;12;9
44871;PMS7003;30602;51.060;17.226;2023-10-31T18:00:21;16;12;10
44871;PMS7003;30602;51.060;17.226;2023-10-31T18:03:56;4;4;3
44871;PMS7003;30602;51.060;17.226;2023-10-31T18:07:41;4;3;3
44871;PMS7003;30602;51.060;17.226;2023-10-31T18:11:13;9;7;6
44871;PMS7003;30602;51.060;17.226;2023-10-31T18:14:57;6;6;5
44871;PMS7003;30602;51.060;17.226;2023-10-31T18:18:45;11;10;8
44871;PMS7003;30602;51.060;17.226;2023-10-31T18:22:28;2;2;2
44871;PMS7003;30602;51.060;17.226;2023-10-31T18:25:53;2;1;0
44871;PMS7003;30602;51.060;17.226;2023-10-31T18:29:14;2;1;1
44871;PMS7003;30602;51.060;17.226;2023-10-31T18:32:58;7;3;2
44871;PMS7003;30602;51.060;17.226;2023-10-31T18:36:43;3;1;1
44871;PMS7003;30602;51.060;17.226;2023-10-31T18:40:08;1;1;1
44871;PMS7003;30602;51.060;17.226;2023-10-31T18:44:07;1;1;1
44871;PMS7003;30602;51.060;17.226;2023-10-31T18:47:27;4;2;2
44871;PMS7003;30602;51.060;17.226;2023-10-31T18:50:45;3;3;2
44871;PMS7003;30602;51.060;17.226;2023-10-31T18:54:06;2;2;1
44871;PMS7003;30602;51.060;17.226;2023-10-31T18:57:51;4;4;3
44871;PMS7003;30602;51.060;17.226;2023-10-31T19:01:33;3;2;1
44871;PMS7003;30602;51.060;17.226;2023-10-31T19:05:28;1;1;1
44871;PMS7003;30602;51.060;17.226;2023-10-31T19:09:32;2;2;2
44871;PMS7003;30602;51.060;17.226;2023-10-31T19:13:03;1;0;0
44871;PMS7003;30602;51.060;17.226;2023-10-31T19:16:45;3;2;2
44871;PMS7003;30602;51.060;17.226;2023-10-31T19:20:21;2;2;2
44871;PMS7003;30602;51.060;17.226;2023-10-31T19:24:27;4;3;2
44871;PMS7003;30602;51.060;17.226;2023-10-31T19:28:02;2;1;1
44871;PMS7003;30602;51.060;17.226;2023-10-31T19:31:57;3;2;2
44871;PMS7003;30602;51.060;17.226;2023-10-31T19:36:12;4;3;2
44871;PMS7003;30602;51.060;17.226;2023-10-31T19:39:57;4;4;3
44871;PMS7003;30602;51.060;17.226;2023-10-31T19:43:44;4;4;3
44871;PMS7003;30602;51.060;17.226;2023-10-31T19:47:04;4;4;3
44871;PMS7003;30602;51.060;17.226;2023-10-31T19:50:27;5;4;3
44871;PMS7003;30602;51.060;17.226;2023-10-31T19:55:17;5;3;2
44871;PMS7003;30602;51.060;17.226;2023-10-31T19:58:40;5;4;3
44871;PMS7003;30602;51.060;17.226;2023-10-31T20:02:23;5;5;4
44871;PMS7003;30602;51.060;17.226;2023-10-31T20:05:43;4;3;3
44871;PMS7003;30602;51.060;17.226;2023-10-31T20:09:39;5;3;3
44871;PMS7003;30602;51.060;17.226;2023-10-31T20:13:02;3;2;1
44871;PMS7003;30602;51.060;17.226;2023-10-31T20:16:22;2;1;1
44871;PMS7003;30602;51.060;17.226;2023-10-31T20:19:46;3;3;2
44871;PMS7003;30602;51.060;17.226;2023-10-31T20:23:09;2;2;2
44871;PMS7003;30602;51.060;17.226;2023-10-31T20:26:32;2;2;1
44871;PMS7003;30602;51.060;17.226;2023-10-31T20:30:49;2;2;2
44871;PMS7003;30602;51.060;17.226;2023-10-31T20:34:41;5;3;2
44871;PMS7003;30602;51.060;17.226;2023-10-31T20:42:14;2;2;1
44871;PMS7003;30602;51.060;17.226;2023-10-31T20:46:52;2;2;1
44871;PMS7003;30602;51.060;17.226;2023-10-31T20:50:43;4;3;2
44871;PMS7003;30602;51.060;17.226;2023-10-31T20:54:39;3;1;0
44871;PMS7003;30602;51.060;17.226;2023-10-31T20:58:50;2;1;1
44871;PMS7003;30602;51.060;17.226;2023-10-31T21:02:08;7;6;3
44871;PMS7003;30602;51.060;17.226;2023-10-31T21:06:04;6;3;1
44871;PMS7003;30602;51.060;17.226;2023-10-31T21:10:22;7;6;4
44871;PMS7003;30602;51.060;17.226;2023-10-31T21:13:45;5;3;2
44871;PMS7003;30602;51.060;17.226;2023-10-31T21:17:44;2;2;2
44871;PMS7003;30602;51.060;17.226;2023-10-31T21:21:05;3;2;1
44871;PMS7003;30602;51.060;17.226;2023-10-31T21:24:59;1;1;0
44871;PMS7003;30602;51.060;17.226;2023-10-31T21:28:48;2;1;1
44871;PMS7003;30602;51.060;17.226;2023-10-31T21:32:07;2;2;1
44871;PMS7003;30602;51.060;17.226;2023-10-31T21:36:12;1;1;1
44871;PMS7003;30602;51.060;17.226;2023-10-31T21:39:58;1;1;1
44871;PMS7003;30602;51.060;17.226;2023-10-31T21:43:42;4;3;1
44871;PMS7003;30602;51.060;17.226;2023-10-31T21:48:12;3;1;1
44871;PMS7003;30602;51.060;17.226;2023-10-31T21:51:41;1;1;1
44871;PMS7003;30602;51.060;17.226;2023-10-31T21:55:45;2;1;1
44871;PMS7003;30602;51.060;17.226;2023-10-31T21:59:26;2;2;2
44871;PMS7003;30602;51.060;17.226;2023-10-31T22:02:49;4;4;2
44871;PMS7003;30602;51.060;17.226;2023-10-31T22:07:17;6;4;4
44871;PMS7003;30602;51.060;17.226;2023-10-31T22:11:01;7;5;4
44871;PMS7003;30602;51.060;17.226;2023-10-31T22:14:58;6;5;4
44871;PMS7003;30602;51.060;17.226;2023-10-31T22:18:44;4;3;3
44871;PMS7003;30602;51.060;17.226;2023-10-31T22:22:24;3;2;1
44871;PMS7003;30602;51.060;17.226;2023-10-31T22:26:07;1;1;1
44871;PMS7003;30602;51.060;17.226;2023-10-31T22:29:59;3;1;1
44871;PMS7003;30602;51.060;17.226;2023-10-31T22:33:25;1;0;0
44871;PMS7003;30602;51.060;17.226;2023-10-31T22:37:18;2;1;1
44871;PMS7003;30602;51.060;17.226;2023-10-31T22:41:32;1;1;1
44871;PMS7003;30602;51.060;17.226;2023-10-31T22:44:52;1;1;1
44871;PMS7003;30602;51.060;17.226;2023-10-31T22:48:34;1;1;1
44871;PMS7003;30602;51.060;17.226;2023-10-31T22:51:56;1;1;1
44871;PMS7003;30602;51.060;17.226;2023-10-31T22:55:56;3;1;1
44871;PMS7003;30602;51.060;17.226;2023-10-31T23:00:07;2;1;1
44871;PMS7003;30602;51.060;17.226;2023-10-31T23:03:54;4;1;1
44871;PMS7003;30602;51.060;17.226;2023-10-31T23:08:29;3;1;1
44871;PMS7003;30602;51.060;17.226;2023-10-31T23:13:16;1;1;1
44871;PMS7003;30602;51.060;17.226;2023-10-31T23:17:00;1;1;1
44871;PMS7003;30602;51.060;17.226;2023-10-31T23:20:27;2;1;1
44871;PMS7003;30602;51.060;17.226;2023-10-31T23:24:50;1;1;1
44871;PMS7003;30602;51.060;17.226;2023-10-31T23:28:11;1;1;0
44871;PMS7003;30602;51.060;17.226;2023-10-31T23:32:04;1;1;1
44871;PMS7003;30602;51.060;17.226;2023-10-31T23:35:43;1;0;0
44871;PMS7003;30602;51.060;17.226;2023-10-31T23:39:23;1;1;1
44871;PMS7003;30602;51.060;17.226;2023-10-31T23:43:32;1;1;1
44871;PMS7003;30602;51.060;17.226;2023-10-31T23:46:55;1;1;1
44871;PMS7003;30602;51.060;17.226;2023-10-31T23:50:26;1;1;1
44871;PMS7003;30602;51.060;17.226;2023-10-31T23:54:28;0;0;0
44871;PMS7003;30602;51.060;17.226;2023-10-31T23:58:00;0;0;0
